createdAt,value
2019-04-26T00:00:59.082Z,37.49
2019-04-26T00:03:36.282Z,38.02
2019-04-26T00:06:08.988Z,37.27
2019-04-26T00:08:41.589Z,38.74
2019-04-26T00:11:44.597Z,39.27
2019-04-26T00:14:40.403Z,38.40
2019-04-26T00:17:15.506Z,37.64
2019-04-26T00:19:46.804Z,37.56
2019-04-26T00:22:19.090Z,38.19
2019-04-26T00:24:50.464Z,37.50
2019-04-26T00:27:21.592Z,38.33
2019-04-26T00:29:52.776Z,38.59
2019-04-26T00:32:23.805Z,38.88
2019-04-26T00:34:54.824Z,38.75
2019-04-26T00:37:25.844Z,38.44
2019-04-26T00:39:57.296Z,38.65
2019-04-26T00:42:28.677Z,38.75
2019-04-26T00:44:59.761Z,40.17
2019-04-26T00:47:31.552Z,40.29
2019-04-26T00:50:03.547Z,39.77
2019-04-26T00:52:35.096Z,40.24
2019-04-26T00:55:06.554Z,40.81
2019-04-26T00:57:38.024Z,40.09
2019-04-26T01:00:11.997Z,41.74
2019-04-26T01:02:49.715Z,41.27
2019-04-26T01:05:20.971Z,41.31
2019-04-26T01:07:54.143Z,41.55
2019-04-26T01:10:25.880Z,41.11
2019-04-26T01:12:56.880Z,41.11
2019-04-26T01:15:27.870Z,40.91
2019-04-26T01:17:58.853Z,41.77
2019-04-26T01:20:33.092Z,41.54
2019-04-26T01:23:06.816Z,40.77
2019-04-26T01:26:21.142Z,41.77
2019-04-26T01:29:06.149Z,41.37
2019-04-26T01:31:45.829Z,41.31
2019-04-26T01:37:06.364Z,42.46
2019-04-26T01:39:39.838Z,42.00
2019-04-26T01:42:22.228Z,42.02
2019-04-26T01:45:15.479Z,41.42
2019-04-26T01:47:47.915Z,48.23
2019-04-26T01:50:22.456Z,49.80
2019-04-26T01:52:57.088Z,47.61
2019-04-26T01:55:31.346Z,46.15
2019-04-26T01:58:06.949Z,44.72
2019-04-26T02:01:06.159Z,45.48
2019-04-26T02:03:37.325Z,45.06
2019-04-26T02:06:08.729Z,43.72
2019-04-26T02:08:39.757Z,43.72
2019-04-26T02:11:11.082Z,43.58
2019-04-26T02:13:42.431Z,45.01
2019-04-26T02:16:13.465Z,44.20
2019-04-26T02:18:44.818Z,43.89
2019-04-26T02:21:24.614Z,44.01
2019-04-26T02:24:14.520Z,45.23
2019-04-26T02:26:48.405Z,44.33
2019-04-26T02:29:26.820Z,44.04
2019-04-26T02:32:05.580Z,44.64
2019-04-26T02:34:38.541Z,44.17
2019-04-26T02:37:12.386Z,43.71
2019-04-26T02:39:43.959Z,44.08
2019-04-26T02:42:41.403Z,45.29
2019-04-26T02:46:13.264Z,45.39
2019-04-26T02:49:09.848Z,46.47
2019-04-26T02:51:50.958Z,46.84
2019-04-26T02:54:47.423Z,47.53
2019-04-26T02:57:34.362Z,46.67
2019-04-26T03:00:11.496Z,46.43
2019-04-26T03:02:42.945Z,47.05
2019-04-26T03:05:14.341Z,47.15
2019-04-26T03:08:03.322Z,48.75
2019-04-26T03:10:47.265Z,49.75
2019-04-26T03:13:32.944Z,49.90
2019-04-26T03:16:18.329Z,49.85
2019-04-26T03:19:16.771Z,52.52
2019-04-26T03:22:36.626Z,51.53
2019-04-26T03:25:35.173Z,50.81
2019-04-26T03:28:19.516Z,52.39
2019-04-26T03:31:07.327Z,51.83
2019-04-26T03:34:19.161Z,52.90
2019-04-26T03:37:53.712Z,53.90
2019-04-26T03:40:52.649Z,54.18
2019-04-26T03:44:05.386Z,55.72
2019-04-26T03:46:49.740Z,56.45
2019-04-26T03:50:00.937Z,57.51
2019-04-26T03:53:07.449Z,57.06
2019-04-26T03:56:45.567Z,58.15
2019-04-26T03:59:49.811Z,60.04
2019-04-26T04:02:59.002Z,59.73
2019-04-26T04:05:45.578Z,60.08
2019-04-26T04:08:24.202Z,58.30
2019-04-26T04:11:01.915Z,59.03
2019-04-26T04:14:00.420Z,60.34
2019-04-26T04:17:16.856Z,61.04
2019-04-26T04:20:38.316Z,63.47
2019-04-26T04:23:55.971Z,61.18
2019-04-26T04:27:07.531Z,62.64
2019-04-26T04:30:05.687Z,62.56
2019-04-26T04:33:11.621Z,63.75
2019-04-26T04:35:49.672Z,62.13
2019-04-26T04:39:12.205Z,63.04
2019-04-26T04:42:20.305Z,61.52
2019-04-26T04:45:59.230Z,64.15
2019-04-26T04:49:10.616Z,61.08
2019-04-26T04:52:13.400Z,60.30
2019-04-26T04:55:05.081Z,59.98
2019-04-26T04:57:52.576Z,59.65
2019-04-26T05:01:22.632Z,58.66
2019-04-26T05:04:06.539Z,58.00
2019-04-26T05:07:25.328Z,58.65
2019-04-26T05:10:12.838Z,57.94
2019-04-26T05:13:23.150Z,59.13
2019-04-26T05:16:33.359Z,58.46
2019-04-26T05:19:39.367Z,60.99
2019-04-26T05:23:03.611Z,58.88
2019-04-26T05:26:29.400Z,61.58
2019-04-26T05:30:25.440Z,58.40
2019-04-26T05:33:46.131Z,58.44
2019-04-26T05:36:59.491Z,61.11
2019-04-26T05:39:49.197Z,59.48
2019-04-26T05:43:28.424Z,58.08
2019-04-26T05:46:35.162Z,58.93
2019-04-26T05:49:42.455Z,60.94
2019-04-26T05:53:12.142Z,57.81
2019-04-26T05:56:43.363Z,61.56
2019-04-26T05:59:47.930Z,58.79
2019-04-26T06:03:06.872Z,60.11
2019-04-26T06:06:08.677Z,57.57
2019-04-26T06:09:33.366Z,57.54
2019-04-26T06:12:30.393Z,57.50
2019-04-26T06:15:43.601Z,58.58
2019-04-26T06:18:59.717Z,57.57
2019-04-26T06:22:29.181Z,58.24
2019-04-26T06:25:29.493Z,60.85
2019-04-26T06:28:32.155Z,57.31
2019-04-26T06:31:20.519Z,59.04
2019-04-26T06:34:16.232Z,57.82
2019-04-26T06:37:14.117Z,57.90
2019-04-26T06:40:06.448Z,55.92
2019-04-26T06:43:11.187Z,55.35
2019-04-26T06:46:21.475Z,54.74
2019-04-26T06:49:35.065Z,54.82
2019-04-26T06:52:11.736Z,54.01
2019-04-26T06:55:08.483Z,54.16
2019-04-26T06:59:03.478Z,53.63
2019-04-26T07:01:54.546Z,54.19
2019-04-26T07:05:05.588Z,54.35
2019-04-26T07:08:03.298Z,53.96
2019-04-26T07:11:11.736Z,52.35
2019-04-26T07:14:55.409Z,53.00
2019-04-26T07:17:45.152Z,46.78
2019-04-26T07:20:43.127Z,46.08
2019-04-26T07:24:18.000Z,43.39
2019-04-26T07:27:32.270Z,46.38
2019-04-26T07:30:42.631Z,45.85
2019-04-26T07:34:14.127Z,46.98
2019-04-26T07:37:52.690Z,47.38
2019-04-26T07:41:29.011Z,49.58
2019-04-26T07:44:25.506Z,52.39
2019-04-26T07:48:31.041Z,52.14
2019-04-26T07:51:59.629Z,52.59
2019-04-26T07:54:54.163Z,52.13
2019-04-26T07:58:19.847Z,52.47
2019-04-26T08:01:11.944Z,52.08
2019-04-26T08:03:56.840Z,51.26
2019-04-26T08:06:57.257Z,50.90
2019-04-26T08:09:31.689Z,49.64
2019-04-26T08:12:08.417Z,48.27
2019-04-26T08:15:15.670Z,49.37
2019-04-26T08:18:02.306Z,48.30
2019-04-26T08:20:43.810Z,48.31
2019-04-26T08:23:39.177Z,48.85
2019-04-26T08:26:01.345Z,51.63
2019-04-26T08:28:36.234Z,52.28
2019-04-26T08:31:11.461Z,50.36
2019-04-26T08:33:49.814Z,51.28
2019-04-26T08:36:27.146Z,50.58
2019-04-26T08:38:58.407Z,50.93
2019-04-26T08:41:29.850Z,50.70
2019-04-26T08:44:11.276Z,51.11
2019-04-26T08:46:59.387Z,51.18
2019-04-26T08:49:56.111Z,50.98
2019-04-26T08:52:31.449Z,51.61
2019-04-26T08:55:06.108Z,50.49
2019-04-26T08:57:42.365Z,50.25
2019-04-26T09:00:44.530Z,50.74
2019-04-26T09:03:32.724Z,49.58
2019-04-26T09:06:18.928Z,48.56
2019-04-26T09:08:52.254Z,47.85
2019-04-26T09:11:30.161Z,51.82
2019-04-26T09:14:01.393Z,53.28
2019-04-26T09:16:33.799Z,51.80
2019-04-26T09:19:05.207Z,53.85
2019-04-26T09:22:02.817Z,51.86
2019-04-26T09:24:37.167Z,51.36
2019-04-26T09:27:25.828Z,53.17
2019-04-26T09:30:06.228Z,51.95
2019-04-26T09:32:58.223Z,52.05
2019-04-26T09:35:30.423Z,51.42
2019-04-26T09:38:01.422Z,53.16
2019-04-26T09:40:32.609Z,54.82
2019-04-26T09:43:15.237Z,54.53
2019-04-26T09:46:03.878Z,52.91
2019-04-26T09:48:51.829Z,54.36
2019-04-26T09:51:24.019Z,54.86
2019-04-26T09:53:56.043Z,54.19
2019-04-26T09:56:27.133Z,54.96
2019-04-26T09:59:01.447Z,56.16
2019-04-26T10:01:32.792Z,55.39
2019-04-26T10:04:05.128Z,55.95
2019-04-26T10:06:36.189Z,56.02
2019-04-26T10:09:17.286Z,56.07
2019-04-26T10:11:57.735Z,57.14
2019-04-26T10:14:36.642Z,55.64
2019-04-26T10:17:15.548Z,54.96
2019-04-26T10:19:50.317Z,56.41
2019-04-26T10:22:23.073Z,55.42
2019-04-26T10:24:54.148Z,55.44
2019-04-26T10:27:26.134Z,56.73
2019-04-26T10:30:07.395Z,56.38
2019-04-26T10:32:29.771Z,57.36
2019-04-26T10:35:00.765Z,57.56
2019-04-26T10:37:39.335Z,58.54
2019-04-26T10:40:04.920Z,59.17
2019-04-26T10:42:37.546Z,57.60
2019-04-26T10:45:14.387Z,58.81
2019-04-26T10:47:43.312Z,57.92
2019-04-26T10:50:15.531Z,59.93
2019-04-26T10:52:54.373Z,59.90
2019-04-26T10:55:50.214Z,60.27
2019-04-26T10:58:37.805Z,61.01
2019-04-26T11:01:13.252Z,60.44
2019-04-26T11:03:44.559Z,61.69
2019-04-26T11:06:15.701Z,59.06
2019-04-26T11:08:46.755Z,60.19
2019-04-26T11:11:17.846Z,58.29
2019-04-26T11:13:49.161Z,61.18
2019-04-26T11:16:20.412Z,60.05
2019-04-26T11:18:51.749Z,59.61
2019-04-26T11:21:22.811Z,58.93
2019-04-26T11:23:54.082Z,58.54
2019-04-26T11:26:25.071Z,59.13
2019-04-26T11:28:57.214Z,58.55
2019-04-26T11:31:29.279Z,60.21
2019-04-26T11:34:05.342Z,59.54
2019-04-26T11:36:33.053Z,58.96
2019-04-26T11:39:09.401Z,60.20
2019-04-26T11:41:41.334Z,61.20
2019-04-26T11:44:12.514Z,59.05
2019-04-26T11:46:44.879Z,60.95
2019-04-26T11:49:16.529Z,59.80
2019-04-26T11:51:47.503Z,60.22
2019-04-26T11:54:20.779Z,62.08
2019-04-26T11:56:51.244Z,63.13
2019-04-26T11:59:22.261Z,64.64
2019-04-26T12:01:53.303Z,63.54
2019-04-26T12:04:44.953Z,66.03
2019-04-26T12:07:22.608Z,65.69
2019-04-26T12:09:55.237Z,66.44
2019-04-26T12:12:26.263Z,65.34
2019-04-26T12:14:57.350Z,64.65
2019-04-26T12:17:31.163Z,64.40
2019-04-26T12:20:01.026Z,63.56
2019-04-26T12:22:32.013Z,64.64
2019-04-26T12:25:03.434Z,62.95
2019-04-26T12:27:35.892Z,65.51
2019-04-26T12:30:08.131Z,66.80
2019-04-26T12:32:39.200Z,65.83
2019-04-26T12:35:10.347Z,68.17
2019-04-26T12:37:41.411Z,65.40
2019-04-26T12:40:12.893Z,65.95
2019-04-26T12:42:47.330Z,65.97
2019-04-26T12:45:52.461Z,67.17
2019-04-26T12:48:24.867Z,66.47
2019-04-26T12:50:55.943Z,68.69
2019-04-26T12:53:31.467Z,69.41
2019-04-26T12:55:59.837Z,68.84
2019-04-26T12:58:30.840Z,68.34
2019-04-26T13:01:02.205Z,66.30
2019-04-26T13:03:33.335Z,67.51
2019-04-26T13:06:04.362Z,67.57
2019-04-26T13:08:35.544Z,67.04
2019-04-26T13:11:28.113Z,69.58
2019-04-26T13:14:03.743Z,67.26
2019-04-26T13:16:50.649Z,69.60
2019-04-26T13:19:21.638Z,68.03
2019-04-26T13:21:52.734Z,69.03
2019-04-26T13:24:23.741Z,68.50
2019-04-26T13:26:54.841Z,68.29
2019-04-26T13:29:27.298Z,69.38
2019-04-26T13:31:58.730Z,67.85
2019-04-26T13:34:33.348Z,69.47
2019-04-26T13:37:03.270Z,68.56
2019-04-26T13:39:35.081Z,70.08
2019-04-26T13:42:09.415Z,68.42
2019-04-26T13:44:55.232Z,67.90
2019-04-26T13:47:43.835Z,67.52
2019-04-26T13:50:28.350Z,67.91
2019-04-26T13:52:59.487Z,67.82
2019-04-26T13:55:30.535Z,65.67
2019-04-26T13:58:01.997Z,66.38
2019-04-26T14:00:33.325Z,66.34
2019-04-26T14:03:04.513Z,65.71
2019-04-26T14:05:35.637Z,66.51
2019-04-26T14:08:06.705Z,65.29
2019-04-26T14:10:37.680Z,65.72
2019-04-26T14:13:08.661Z,64.25
2019-04-26T14:15:44.044Z,65.52
2019-04-26T14:18:13.632Z,64.14
2019-04-26T14:20:44.713Z,62.21
2019-04-26T14:23:36.779Z,62.94
2019-04-26T14:26:10.285Z,61.67
2019-04-26T14:28:42.157Z,63.41
2019-04-26T14:31:16.456Z,63.57
2019-04-26T14:33:46.349Z,62.56
2019-04-26T14:36:18.539Z,59.96
2019-04-26T14:38:49.822Z,61.48
2019-04-26T14:41:22.485Z,60.98
2019-04-26T14:43:56.695Z,62.05
2019-04-26T14:46:26.683Z,61.62
2019-04-26T14:49:02.089Z,62.35
2019-04-26T14:51:30.355Z,63.59
2019-04-26T14:54:01.395Z,64.62
2019-04-26T14:56:32.430Z,66.31
2019-04-26T14:59:08.027Z,67.19
2019-04-26T15:01:58.769Z,67.33
2019-04-26T15:04:44.989Z,68.50
2019-04-26T15:07:15.989Z,66.64
2019-04-26T15:09:46.975Z,68.07
2019-04-26T15:12:17.952Z,65.98
2019-04-26T15:14:49.390Z,64.64
2019-04-26T15:17:24.845Z,64.72
2019-04-26T15:19:54.623Z,65.26
2019-04-26T15:22:25.641Z,68.80
2019-04-26T15:24:56.641Z,68.31
2019-04-26T15:27:32.227Z,68.68
2019-04-26T15:30:04.152Z,68.93
2019-04-26T15:32:35.336Z,67.44
2019-04-26T15:35:06.833Z,71.27
2019-04-26T15:37:37.975Z,71.94
2019-04-26T15:40:35.078Z,72.52
2019-04-26T15:43:33.826Z,72.15
2019-04-26T15:46:12.492Z,73.17
2019-04-26T15:49:05.749Z,71.19
2019-04-26T15:51:37.376Z,71.67
2019-04-26T15:54:08.436Z,70.76
2019-04-26T15:56:39.470Z,68.23
2019-04-26T15:59:10.443Z,70.61
2019-04-26T16:01:47.529Z,70.07
2019-04-26T16:04:17.382Z,70.27
2019-04-26T16:06:46.829Z,73.30
2019-04-26T16:09:19.741Z,69.98
2019-04-26T16:11:50.701Z,69.87
2019-04-26T16:14:24.884Z,70.18
2019-04-26T16:16:54.339Z,68.75
2019-04-26T16:19:26.660Z,69.16
2019-04-26T16:21:58.050Z,68.40
2019-04-26T16:24:29.199Z,67.36
2019-04-26T16:27:00.253Z,66.20
2019-04-26T16:29:46.830Z,65.98
2019-04-26T16:32:52.625Z,67.23
2019-04-26T16:35:27.992Z,66.67
2019-04-26T16:37:59.816Z,64.84
2019-04-26T16:40:28.476Z,66.69
2019-04-26T16:42:59.822Z,68.05
2019-04-26T16:45:32.673Z,67.10
2019-04-26T16:48:03.641Z,65.07
2019-04-26T16:50:43.777Z,64.40
2019-04-26T16:53:33.674Z,67.06
2019-04-26T16:55:48.867Z,65.89
2019-04-26T16:58:12.916Z,65.21
2019-04-26T17:00:51.584Z,65.82
2019-04-26T17:03:16.882Z,64.26
2019-04-26T17:05:51.117Z,65.12
2019-04-26T17:08:20.873Z,64.30
2019-04-26T17:10:56.338Z,67.27
2019-04-26T17:13:29.816Z,66.17
2019-04-26T17:15:59.901Z,65.51
2019-04-26T17:18:32.326Z,65.19
2019-04-26T17:21:03.582Z,66.26
2019-04-26T17:23:44.561Z,67.53
2019-04-26T17:26:36.716Z,68.85
2019-04-26T17:29:08.024Z,66.69
2019-04-26T17:31:39.155Z,67.03
2019-04-26T17:34:10.276Z,67.94
2019-04-26T17:36:41.326Z,69.51
2019-04-26T17:39:16.942Z,67.54
2019-04-26T17:41:50.661Z,68.21
2019-04-26T17:44:20.374Z,66.76
2019-04-26T17:46:56.346Z,68.00
2019-04-26T17:49:27.375Z,68.99
2019-04-26T17:51:58.010Z,67.65
2019-04-26T17:54:43.785Z,67.19
2019-04-26T17:57:04.335Z,66.19
2019-04-26T17:59:36.827Z,66.52
2019-04-26T18:02:19.795Z,67.97
2019-04-26T18:04:42.464Z,66.42
2019-04-26T18:07:36.294Z,67.09
2019-04-26T18:09:46.853Z,65.89
2019-04-26T18:12:18.117Z,68.81
2019-04-26T18:14:49.171Z,67.27
2019-04-26T18:17:27.739Z,65.88
2019-04-26T18:20:12.970Z,66.08
2019-04-26T18:22:47.837Z,68.11
2019-04-26T18:25:19.101Z,67.27
2019-04-26T18:27:50.165Z,66.98
2019-04-26T18:30:21.683Z,66.56
2019-04-26T18:32:52.740Z,67.80
2019-04-26T18:35:23.804Z,67.03
2019-04-26T18:37:54.853Z,66.26
2019-04-26T18:40:25.961Z,66.58
2019-04-26T18:42:56.984Z,65.72
2019-04-26T18:45:30.033Z,65.99
2019-04-26T18:48:01.952Z,66.99
2019-04-26T18:50:36.499Z,67.16
2019-04-26T18:53:25.212Z,65.80
2019-04-26T18:55:59.332Z,65.86
2019-04-26T18:58:30.293Z,65.88
2019-04-26T19:01:05.213Z,65.46
2019-04-26T19:03:35.531Z,66.03
2019-04-26T19:06:06.569Z,66.91
2019-04-26T19:08:45.802Z,65.70
2019-04-26T19:11:11.858Z,66.73
2019-04-26T19:14:02.146Z,66.40
2019-04-26T19:16:46.351Z,65.81
2019-04-26T19:19:26.020Z,66.85
2019-04-26T19:22:01.558Z,65.74
2019-04-26T19:24:33.319Z,66.16
2019-04-26T19:27:04.365Z,65.40
2019-04-26T19:29:36.304Z,65.45
2019-04-26T19:32:08.001Z,66.80
2019-04-26T19:34:39.115Z,65.51
2019-04-26T19:37:10.169Z,66.03
2019-04-26T19:39:42.745Z,65.25
2019-04-26T19:42:13.970Z,65.77
2019-04-26T19:44:45.119Z,66.41
2019-04-26T19:47:26.801Z,65.29
2019-04-26T19:50:10.185Z,64.87
2019-04-26T19:52:52.945Z,66.46
2019-04-26T19:55:36.999Z,65.31
2019-04-26T19:58:16.153Z,65.27
2019-04-26T20:00:46.700Z,65.45
2019-04-26T20:03:16.947Z,65.90
2019-04-26T20:05:48.293Z,65.58
2019-04-26T20:08:19.458Z,66.33
2019-04-26T20:10:52.099Z,65.51
2019-04-26T20:13:24.045Z,65.67
2019-04-26T20:15:57.310Z,65.00
2019-04-26T20:18:27.862Z,65.65
2019-04-26T20:20:58.981Z,65.89
2019-04-26T20:23:31.702Z,65.94
2019-04-26T20:26:07.155Z,65.51
2019-04-26T20:28:37.450Z,65.45
2019-04-26T20:31:25.378Z,64.37
2019-04-26T20:33:56.562Z,65.35
2019-04-26T20:36:27.565Z,64.77
2019-04-26T20:38:58.684Z,64.33
2019-04-26T20:41:29.702Z,64.12
2019-04-26T20:44:07.038Z,64.94
2019-04-26T20:46:34.366Z,64.83
2019-04-26T20:49:09.086Z,64.80
2019-04-26T20:51:40.755Z,65.02
2019-04-26T20:54:16.214Z,64.44
2019-04-26T20:56:46.202Z,63.54
2019-04-26T20:59:20.178Z,63.86
2019-04-26T21:02:02.718Z,63.16
2019-04-26T21:04:34.931Z,64.09
2019-04-26T21:06:55.443Z,64.23
2019-04-26T21:09:26.544Z,64.19
2019-04-26T21:11:57.541Z,64.05
2019-04-26T21:14:28.653Z,63.93
2019-04-26T21:16:59.774Z,63.91
2019-04-26T21:19:32.750Z,63.67
2019-04-26T21:22:03.757Z,64.28
2019-04-26T21:24:37.124Z,64.26
2019-04-26T21:27:29.345Z,64.63
2019-04-26T21:30:21.525Z,65.12
2019-04-26T21:33:10.815Z,66.72
2019-04-26T21:36:05.829Z,66.70
2019-04-26T21:39:05.862Z,66.10
2019-04-26T21:41:49.388Z,65.75
2019-04-26T21:44:20.372Z,66.92
2019-04-26T21:46:56.267Z,65.73
2019-04-26T21:49:24.366Z,66.01
2019-04-26T21:51:55.589Z,65.84
2019-04-26T21:54:26.566Z,65.01
2019-04-26T21:56:57.582Z,65.85
2019-04-26T21:59:28.753Z,65.43
2019-04-26T22:01:59.929Z,65.57
2019-04-26T22:04:34.169Z,65.51
2019-04-26T22:07:07.598Z,65.61
2019-04-26T22:09:47.916Z,65.87
2019-04-26T22:12:18.918Z,66.93
2019-04-26T22:15:00.680Z,66.68
2019-04-26T22:17:34.815Z,65.89
2019-04-26T22:20:37.704Z,66.11
2019-04-26T22:23:26.042Z,67.37
2019-04-26T22:26:00.072Z,66.28
2019-04-26T22:28:31.292Z,66.11
2019-04-26T22:31:06.878Z,65.94
2019-04-26T22:33:35.741Z,66.28
2019-04-26T22:36:07.226Z,66.48
2019-04-26T22:38:38.366Z,66.34
2019-04-26T22:41:09.355Z,67.78
2019-04-26T22:43:54.013Z,66.50
2019-04-26T22:46:47.283Z,66.97
2019-04-26T22:49:16.074Z,67.34
2019-04-26T22:51:47.183Z,67.08
2019-04-26T22:54:18.212Z,68.10
2019-04-26T22:56:49.354Z,68.00
2019-04-26T22:59:20.507Z,67.49
2019-04-26T23:01:53.412Z,67.31
2019-04-26T23:04:26.503Z,66.42
2019-04-26T23:06:57.054Z,65.69
2019-04-26T23:09:28.132Z,66.44
2019-04-26T23:12:06.399Z,67.00
2019-04-26T23:14:56.447Z,67.99
2019-04-26T23:17:44.006Z,67.17
2019-04-26T23:20:43.035Z,67.25
2019-04-26T23:23:14.165Z,67.06
2019-04-26T23:25:45.177Z,66.63
2019-04-26T23:28:16.151Z,66.18
2019-04-26T23:30:47.306Z,67.08
2019-04-26T23:33:18.283Z,66.82
2019-04-26T23:35:49.386Z,66.02
2019-04-26T23:38:20.368Z,66.97
2019-04-26T23:40:51.532Z,65.86
2019-04-26T23:43:25.532Z,65.68
2019-04-26T23:45:55.528Z,65.28
2019-04-26T23:48:26.673Z,66.22
2019-04-26T23:50:59.918Z,67.64
2019-04-26T23:53:30.305Z,70.26
2019-04-26T23:56:01.289Z,68.21
2019-04-26T23:58:32.251Z,67.41
